Time;durP1;ratioP1;P1;durP2;ratioP2;P2;SDS_P1;SDS_P2;PMS_P1;PMS_P2;Temp;Humidity;BMP_temperature;BMP_pressure;BME280_temperature;BME280_humidity;BME280_pressure;Samples;Min_cycle;Max_cycle;Signal;HPM_P1;HPM_P2
2023/07/28 00:12:36;;;;;;;4.47;4.10;;;;;;;-144.30;42.46;84573.53;5136906;27;20193;-54
2023/07/28 00:25:13;;;;;;;4.15;3.95;;;;;;;-144.30;43.39;84613.28;5136260;27;20210;-51
2023/07/28 00:51:29;;;;;;;4.55;4.10;;;;;;;-144.30;43.32;84629.19;4127046;27;28642400;-52
2023/07/28 01:07:44;;;;;;;5.68;4.95;;;;;;;-144.30;44.02;84660.97;5111274;28;20277;-54
2023/07/28 01:10:56;;;;;;;5.53;4.50;;;;;;;-144.30;43.86;84603.34;5115152;28;20209;-48
2023/07/28 01:43:34;;;;;;;9.23;4.88;;;;;;;-144.30;45.25;84738.47;5107330;28;20199;-50
2023/07/28 01:46:09;;;;;;;7.53;6.93;;;;;;;-144.30;45.52;84752.41;5111920;28;20215;-53
2023/07/28 01:52:58;;;;;;;12.48;11.25;;;;;;;-144.30;45.63;84770.28;5081938;28;20203;-54
2023/07/28 02:02:21;;;;;;;4.50;4.05;;;;;;;-144.30;45.35;84808.06;5114998;28;20193;-54
2023/07/28 02:12:10;;;;;;;4.70;4.32;;;;;;;-144.30;45.67;84802.09;5116190;28;20204;-54
2023/07/28 02:15:30;;;;;;;4.80;4.57;;;;;;;-144.30;45.84;84812.03;5117867;28;20672;-50
2023/07/28 02:18:25;;;;;;;4.60;4.30;;;;;;;-144.30;46.22;84808.06;5117863;28;20242;-51
2023/07/28 02:24:19;;;;;;;5.03;4.63;;;;;;;-144.30;46.29;84814.00;5111140;28;20195;-54
2023/07/28 02:36:35;;;;;;;4.50;4.30;;;;;;;-144.30;47.05;84816.00;5105938;28;20224;-54
2023/07/28 02:39:17;;;;;;;4.75;4.28;;;;;;;-144.30;47.33;84839.84;5114124;28;20194;-53
2023/07/28 02:48:38;;;;;;;4.78;4.55;;;;;;;-144.30;47.86;84853.78;5108212;28;20221;-54
2023/07/28 03:13:58;;;;;;;4.97;4.50;;;;;;;-144.30;48.52;84835.88;5112593;28;20263;-53
2023/07/28 03:16:41;;;;;;;5.05;4.70;;;;;;;-144.30;48.47;84883.59;5105964;28;20203;-55
2023/07/28 03:19:23;;;;;;;5.10;4.63;;;;;;;-144.30;48.53;84847.81;5112953;28;20209;-54
2023/07/28 03:24:41;;;;;;;5.13;4.55;;;;;;;-144.30;48.44;84875.63;5112677;28;20203;-54
2023/07/28 03:27:25;;;;;;;5.20;4.30;;;;;;;-144.30;48.27;84863.72;5112082;28;20199;-53
2023/07/28 03:30:35;;;;;;;5.55;4.68;;;;;;;-144.30;48.21;84855.75;5112451;28;20251;-54
2023/07/28 03:33:08;;;;;;;4.85;4.50;;;;;;;-144.30;48.11;84907.44;5112619;28;20315;-53
2023/07/28 03:36:31;;;;;;;4.55;4.25;;;;;;;-144.30;48.20;84831.91;5112675;28;20285;-54
2023/07/28 03:41:51;;;;;;;7.50;4.65;;;;;;;-144.30;47.56;84823.94;5107477;28;20194;-54
2023/07/28 03:47:33;;;;;;;5.03;4.65;;;;;;;-144.30;47.43;84839.84;5108294;28;20217;-54
2023/07/28 03:50:04;;;;;;;4.78;4.43;;;;;;;-144.30;47.26;84819.97;5112080;28;20191;-52
2023/07/28 03:52:46;;;;;;;4.78;4.38;;;;;;;-144.30;46.92;84784.19;5112495;28;20588;-54
2023/07/28 04:03:03;;;;;;;5.72;4.20;;;;;;;-144.30;41.26;84354.91;5112001;28;20198;-49
2023/07/28 04:05:56;;;;;;;5.57;4.18;;;;;;;-144.30;37.77;84040.91;5111913;28;20294;-54
2023/07/28 04:11:51;;;;;;;5.53;4.90;;;;;;;-144.30;32.95;83468.66;5106752;28;20207;-50
2023/07/28 04:24:50;;;;;;;6.88;4.70;;;;;;;-144.30;27.83;82501.22;5111024;28;20210;-51
2023/07/28 04:35:19;;;;;;;5.13;4.70;;;;;;;-144.30;24.98;81629.34;5042827;28;20218;-51
2023/07/28 04:38:03;;;;;;;5.55;4.57;;;;;;;-144.30;24.89;81677.00;5078448;28;20258;-55
2023/07/28 04:53:46;;;;;;;7.43;4.60;;;;;;;-144.30;24.40;81395.03;5094481;28;20268;-55
2023/07/28 05:06:22;;;;;;;6.00;5.45;;;;;;;-144.30;22.85;80700.16;5108724;28;20194;-52
2023/07/28 05:12:59;;;;;;;6.88;4.50;;;;;;;-144.30;23.26;81250.09;5106372;28;20204;-55
2023/07/28 05:35:09;;;;;;;6.03;4.68;;;;;;;-144.30;23.33;81001.91;5096814;28;20617;-54
2023/07/28 05:37:57;;;;;;;5.82;5.05;;;;;;;-144.30;23.43;81005.88;5102241;28;20271;-52
2023/07/28 05:40:56;;;;;;;6.30;4.90;;;;;;;-144.30;23.12;80843.09;5101812;28;20229;-54
2023/07/28 05:44:07;;;;;;;4.65;4.28;;;;;;;-144.30;23.20;80886.75;5097021;28;20613;-55
2023/07/28 05:50:20;;;;;;;3.53;3.30;;;;;;;-144.30;22.80;80791.47;5081168;28;20222;-51
2023/07/28 06:13:41;;;;;;;8.02;4.68;;;;;;;-144.30;23.67;81341.44;5099144;28;20214;-52
2023/07/28 07:02:54;;;;;;;4.32;3.50;;;;;;;-144.30;25.03;81869.66;5136018;27;20217;-52
2023/07/28 07:05:40;;;;;;;4.70;3.80;;;;;;;-144.30;25.33;81939.16;5148104;27;20288;-50
2023/07/28 07:08:35;;;;;;;3.83;3.53;;;;;;;-144.30;24.56;81816.03;5146843;27;20619;-50
2023/07/28 07:28:02;;;;;;;3.15;2.95;;;;;;;-144.30;24.33;81905.38;5140924;27;20217;-54
2023/07/28 08:57:42;;;;;;;2.58;2.38;;;;;;;-144.30;23.48;81964.97;5137442;27;20216;-50
2023/07/28 10:17:52;;;;;;;2.35;2.00;;;;;;;-144.30;22.56;82000.72;5129775;27;20194;-50
2023/07/28 10:54:47;;;;;;;2.53;2.40;;;;;;;-144.30;22.51;82431.69;5123994;27;20232;-51
2023/07/28 12:07:51;;;;;;;4.68;3.17;;;;;;;-144.30;23.76;82650.19;5127917;27;20725;-48
2023/07/28 12:11:07;;;;;;;3.17;2.50;;;;;;;-144.30;23.62;82566.78;5146905;27;20198;-51
2023/07/28 12:17:52;;;;;;;;;;;;;;;;;;;;;
2023/07/28 12:27:20;;;;;;;3.58;2.72;;;;;;;-144.30;23.53;82650.19;5135009;27;20210;-51
2023/07/28 13:20:48;;;;;;;3.67;2.40;;;;;;;-144.30;23.46;82642.25;5087385;28;20206;-54
2023/07/28 13:23:53;;;;;;;3.20;2.78;;;;;;;-144.30;23.39;82628.34;5085883;28;20205;-55
2023/07/28 13:27:04;;;;;;;2.60;2.50;;;;;;;-144.30;23.36;82642.25;5088183;28;20195;-49
2023/07/28 13:33:11;;;;;;;3.13;2.60;;;;;;;-144.30;23.33;82664.09;5088590;28;20625;-49
2023/07/28 13:39:14;;;;;;;2.40;2.00;;;;;;;-144.30;23.46;82674.03;5084353;28;20218;-53
2023/07/28 13:42:15;;;;;;;2.47;2.28;;;;;;;-144.30;23.62;82656.16;5082258;28;20199;-49
2023/07/28 13:48:55;;;;;;;2.38;2.22;;;;;;;-144.30;23.67;82703.81;5087874;28;20273;-54
2023/07/28 13:52:06;;;;;;;2.88;2.78;;;;;;;-144.30;23.76;82681.97;5090228;28;20282;-56
2023/07/28 13:55:17;;;;;;;4.07;2.47;;;;;;;-144.30;23.93;82689.91;5090222;28;20198;-55
2023/07/28 14:01:23;;;;;;;2.70;2.50;;;;;;;-144.30;23.70;82693.88;5085744;28;20207;-52
2023/07/28 14:03:59;;;;;;;3.55;2.20;;;;;;;-144.30;23.79;82689.91;5077253;28;20203;-50
2023/07/28 14:06:47;;;;;;;2.67;2.47;;;;;;;-144.30;23.84;82725.69;5089092;28;20210;-49
2023/07/28 14:15:24;;;;;;;2.85;2.50;;;;;;;-144.30;23.75;82693.88;5085126;28;20239;-53
2023/07/28 14:17:59;;;;;;;3.95;2.30;;;;;;;-144.30;23.77;82707.81;5109411;27;20266;-50
2023/07/28 14:20:33;;;;;;;2.63;2.38;;;;;;;-144.30;23.77;82733.63;5110502;28;20198;-54
2023/07/28 14:23:05;;;;;;;4.13;2.55;;;;;;;-144.30;23.80;82729.66;5110461;28;20197;-54
2023/07/28 14:25:43;;;;;;;3.25;2.70;;;;;;;-144.30;23.71;82739.56;5108324;28;20248;-53
2023/07/28 14:28:13;;;;;;;3.00;2.80;;;;;;;-144.30;23.67;82826.97;5106897;28;20640;-53
2023/07/28 14:30:52;;;;;;;5.45;2.80;;;;;;;-144.30;23.78;82805.13;5122745;27;20206;-53
2023/07/28 14:33:39;;;;;;;5.38;2.70;;;;;;;-144.30;23.87;82783.28;5128323;27;20704;-49
2023/07/28 14:36:35;;;;;;;3.10;2.90;;;;;;;-144.30;23.97;82757.47;5130579;27;20204;-54
2023/07/28 14:39:28;;;;;;;2.70;2.60;;;;;;;-144.30;24.01;82725.69;5129876;27;20694;-54
2023/07/28 14:42:00;;;;;;;2.80;2.60;;;;;;;-144.30;23.86;82705.81;5127491;27;20201;-48
2023/07/28 14:45:05;;;;;;;2.55;2.45;;;;;;;-144.30;23.76;82731.63;5130561;27;20213;-50
2023/07/28 14:48:02;;;;;;;2.28;2.17;;;;;;;-144.30;23.96;82745.53;5130945;27;20238;-49
2023/07/28 14:50:52;;;;;;;2.30;2.17;;;;;;;-144.30;23.99;82717.72;5126729;27;20239;-54
2023/07/28 14:53:47;;;;;;;2.72;2.45;;;;;;;-144.30;23.89;82681.97;5130663;27;20198;-54
2023/07/28 14:56:36;;;;;;;3.28;3.08;;;;;;;-144.30;24.00;82664.09;5129684;27;20194;-50
2023/07/28 14:59:23;;;;;;;3.58;2.78;;;;;;;-144.30;24.03;82695.88;5130483;27;20200;-48
2023/07/28 15:02:36;;;;;;;2.95;2.20;;;;;;;-144.30;24.17;82689.91;5128854;27;20205;-49
2023/07/28 15:05:29;;;;;;;2.70;2.50;;;;;;;-144.30;24.11;82689.91;5130213;27;20194;-48
2023/07/28 15:08:19;;;;;;;2.70;2.60;;;;;;;-144.30;24.17;82757.47;5128043;27;20193;-49
2023/07/28 15:11:17;;;;;;;2.72;2.53;;;;;;;-144.30;24.19;82753.50;5128227;27;20662;-49
2023/07/28 15:14:17;;;;;;;2.67;2.55;;;;;;;-144.30;24.40;82811.09;5130303;27;20198;-54
2023/07/28 15:17:14;;;;;;;3.13;2.60;;;;;;;-144.30;24.20;82819.03;5129840;28;20201;-53
2023/07/28 15:20:21;;;;;;;4.97;2.75;;;;;;;-144.30;24.55;82779.31;5129044;28;20250;-54
2023/07/28 15:22:56;;;;;;;5.20;3.42;;;;;;;-144.30;24.65;82769.38;5129898;28;20197;-55
2023/07/28 15:25:42;;;;;;;2.80;2.70;;;;;;;-144.30;24.48;82787.25;5128245;28;20697;-51
2023/07/28 15:28:43;;;;;;;5.20;2.40;;;;;;;-144.30;24.28;82769.38;5125150;28;20276;-54
2023/07/28 15:31:34;;;;;;;2.85;2.72;;;;;;;-144.30;24.45;82795.19;5127384;28;20276;-55
2023/07/28 15:34:17;;;;;;;4.55;4.00;;;;;;;-144.30;24.57;82777.31;5125383;28;20745;-54
2023/07/28 15:37:19;;;;;;;5.07;4.63;;;;;;;-144.30;24.67;82801.16;5130282;28;20229;-54
2023/07/28 15:39:55;;;;;;;3.03;2.83;;;;;;;-144.30;24.29;82785.28;5125433;28;20280;-55
2023/07/28 15:42:48;;;;;;;4.57;4.18;;;;;;;-144.30;24.47;82771.38;5117052;28;20201;-53
2023/07/28 15:48:18;;;;;;;5.50;2.50;;;;;;;-144.30;24.29;82773.34;5127658;28;20578;-53
2023/07/28 15:51:11;;;;;;;6.30;2.60;;;;;;;-144.30;24.45;82805.13;5129380;28;20685;-48
2023/07/28 15:54:12;;;;;;;2.50;2.33;;;;;;;-144.30;24.55;82825.00;5129455;28;20217;-49
2023/07/28 15:56:46;;;;;;;3.03;2.70;;;;;;;-144.30;24.54;82803.16;5124777;28;20197;-50
2023/07/28 15:59:15;;;;;;;2.47;2.38;;;;;;;-144.30;24.50;82801.16;5129417;28;20218;-49
2023/07/28 16:01:45;;;;;;;7.85;6.65;;;;;;;-144.30;24.63;82789.25;5129585;27;20190;-50
2023/07/28 16:04:41;;;;;;;2.60;2.50;;;;;;;-144.30;24.77;82783.28;5133942;27;20206;-50
2023/07/28 16:07:19;;;;;;;3.45;3.00;;;;;;;-144.30;24.83;82817.06;5133357;27;20198;-50
2023/07/28 16:10:10;;;;;;;2.97;2.78;;;;;;;-144.30;24.70;82813.06;5133533;27;20636;-53
2023/07/28 16:12:44;;;;;;;2.58;2.47;;;;;;;-144.30;24.79;82811.09;5130988;27;20233;-54
2023/07/28 16:15:17;;;;;;;2.88;2.67;;;;;;;-144.30;24.85;82809.09;5130750;27;20193;-54
2023/07/28 16:17:50;;;;;;;3.17;2.85;;;;;;;-144.30;24.86;82825.00;5132206;27;20241;-52
2023/07/28 16:20:39;;;;;;;3.40;3.00;;;;;;;-144.30;24.96;82801.16;5132994;27;20202;-51
2023/07/28 16:23:22;;;;;;;3.17;2.88;;;;;;;-144.30;25.00;82868.69;5132606;27;20197;-56
2023/07/28 16:26:04;;;;;;;5.32;2.78;;;;;;;-144.30;24.99;82868.69;5130701;27;20217;-53
2023/07/28 16:28:40;;;;;;;2.90;2.70;;;;;;;-144.30;25.07;82856.78;5129805;27;20226;-54
2023/07/28 16:31:10;;;;;;;4.43;3.15;;;;;;;-144.30;25.05;82807.13;5132581;27;20211;-55
2023/07/28 16:33:51;;;;;;;3.28;3.08;;;;;;;-144.30;25.06;82864.72;5132080;27;20190;-55
2023/07/28 16:36:24;;;;;;;2.97;2.88;;;;;;;-144.30;25.03;82610.47;5131402;27;20251;-53
2023/07/28 16:39:09;;;;;;;4.15;2.67;;;;;;;-144.30;25.33;82854.78;5129103;27;20236;-54
2023/07/28 16:41:46;;;;;;;8.45;3.30;;;;;;;-144.30;25.24;82830.97;5130764;27;20665;-54
2023/07/28 16:44:28;;;;;;;3.47;2.92;;;;;;;-144.30;25.32;82797.19;5130801;27;20281;-49
2023/07/28 16:47:04;;;;;;;2.63;2.40;;;;;;;-144.30;25.34;82866.72;5129741;27;20200;-50
2023/07/28 16:49:44;;;;;;;3.20;3.00;;;;;;;-144.30;25.27;82888.56;5132579;27;20193;-49
2023/07/28 16:52:26;;;;;;;4.57;2.90;;;;;;;-144.30;25.35;82870.69;5132262;27;20204;-50
2023/07/28 16:55:04;;;;;;;3.33;2.97;;;;;;;-144.30;25.48;82904.47;5129678;27;20230;-51
2023/07/28 16:57:54;;;;;;;3.10;2.90;;;;;;;-144.30;25.51;82898.50;5132016;27;20224;-51
2023/07/28 17:00:23;;;;;;;4.07;2.85;;;;;;;-144.30;25.66;82902.47;5130587;27;20197;-50
2023/07/28 17:03:09;;;;;;;3.63;2.90;;;;;;;-144.30;25.76;82906.44;5132977;27;20194;-50
2023/07/28 17:06:01;;;;;;;3.83;3.53;;;;;;;-144.30;25.91;82870.69;5132285;27;20564;-50
2023/07/28 17:08:49;;;;;;;9.63;3.70;;;;;;;-144.30;25.98;82898.50;5131691;27;20194;-50
2023/07/28 17:11:24;;;;;;;3.95;2.80;;;;;;;-144.30;25.88;82952.13;5131692;27;20198;-54
2023/07/28 17:14:05;;;;;;;6.15;3.13;;;;;;;-144.30;26.30;82940.22;5129866;27;20687;-53
2023/07/28 17:16:36;;;;;;;2.85;2.65;;;;;;;-144.30;26.33;82964.06;5131259;27;20194;-54
2023/07/28 17:19:24;;;;;;;5.78;4.65;;;;;;;-144.30;26.25;82997.81;5131411;27;20222;-50
2023/07/28 17:22:02;;;;;;;3.67;3.47;;;;;;;-144.30;26.16;82991.88;5131458;27;20621;-49
2023/07/28 17:24:50;;;;;;;3.58;3.28;;;;;;;-144.30;26.39;83017.69;5131855;27;20197;-50
2023/07/28 17:27:21;;;;;;;3.67;3.40;;;;;;;-144.30;26.54;83003.78;5129414;27;20201;-52
2023/07/28 17:30:03;;;;;;;3.40;3.20;;;;;;;-144.30;26.65;83003.78;5132328;27;20259;-50
2023/07/28 17:32:55;;;;;;;5.10;4.70;;;;;;;-144.30;26.88;83035.56;5132503;27;20244;-49
2023/07/28 17:35:43;;;;;;;6.72;4.80;;;;;;;-144.30;26.93;83055.44;5131408;27;20288;-50
2023/07/28 17:38:12;;;;;;;5.00;4.35;;;;;;;-144.30;27.11;83067.34;5129611;27;20221;-54
2023/07/28 17:41:01;;;;;;;4.65;3.90;;;;;;;-144.30;26.87;83103.13;5132138;27;20198;-54
2023/07/28 17:43:59;;;;;;;3.83;3.53;;;;;;;-144.30;26.96;83021.66;5129686;27;20209;-54
2023/07/28 17:46:48;;;;;;;12.02;3.47;;;;;;;-144.30;27.00;83095.16;5132144;27;20670;-55
2023/07/28 17:49:36;;;;;;;3.33;3.13;;;;;;;-144.30;27.13;83121.00;5131014;27;20190;-54
2023/07/28 17:52:15;;;;;;;6.93;3.50;;;;;;;-144.30;27.25;83115.03;5130238;27;20202;-54
2023/07/28 17:55:03;;;;;;;3.47;3.10;;;;;;;-144.30;27.23;83121.00;5131812;27;20190;-53
2023/07/28 17:57:46;;;;;;;14.82;3.35;;;;;;;-144.30;27.18;83172.66;5131728;27;20209;-53
2023/07/28 18:00:18;;;;;;;3.60;3.30;;;;;;;-144.30;27.35;83150.78;5129026;27;20202;-53
2023/07/28 18:03:03;;;;;;;3.28;3.00;;;;;;;-144.30;27.25;83166.69;5130714;27;21049;-53
2023/07/28 18:05:32;;;;;;;3.17;2.97;;;;;;;-144.30;27.58;83168.66;5131171;27;20321;-54
2023/07/28 18:08:11;;;;;;;4.63;3.50;;;;;;;-144.30;27.40;83198.47;5131038;27;20194;-54
2023/07/28 18:10:50;;;;;;;4.00;3.70;;;;;;;-144.30;27.35;83202.44;5131384;27;20200;-54
2023/07/28 18:13:27;;;;;;;3.80;3.50;;;;;;;-144.30;27.40;83230.25;5130616;27;20220;-54
2023/07/28 18:16:02;;;;;;;4.25;3.45;;;;;;;-144.30;27.17;83198.47;5131207;27;20208;-54
2023/07/28 18:18:40;;;;;;;3.50;3.30;;;;;;;-144.30;27.52;83214.38;5130877;27;20984;-53
2023/07/28 18:21:10;;;;;;;3.95;3.67;;;;;;;-144.30;27.62;83202.44;5131627;27;20198;-54
2023/07/28 18:23:49;;;;;;;5.05;3.88;;;;;;;-144.30;27.76;83212.38;5131622;27;20654;-54
2023/07/28 18:26:29;;;;;;;4.90;3.42;;;;;;;-144.30;28.09;83250.13;5130638;27;20242;-53
2023/07/28 18:29:01;;;;;;;15.73;3.88;;;;;;;-144.30;28.27;83246.16;5131024;27;20190;-54
2023/07/28 18:31:38;;;;;;;5.00;3.72;;;;;;;-144.30;28.95;83279.94;5130915;27;20233;-54
2023/07/28 18:34:08;;;;;;;5.72;3.83;;;;;;;-144.30;29.02;83279.94;5130924;27;20194;-54
2023/07/28 18:36:41;;;;;;;11.15;3.95;;;;;;;-144.30;29.28;83268.00;5131213;27;20285;-53
2023/07/28 18:39:21;;;;;;;6.70;4.05;;;;;;;-144.30;29.28;83281.91;5130072;27;20221;-56
2023/07/28 18:42:08;;;;;;;3.78;3.55;;;;;;;-144.30;29.20;83305.75;5130951;27;20198;-54
2023/07/28 18:44:35;;;;;;;5.93;3.75;;;;;;;-144.30;29.60;83345.50;5126346;27;20689;-54
2023/07/28 18:47:20;;;;;;;7.93;4.50;;;;;;;-144.30;29.80;83319.66;5128587;27;20200;-49
2023/07/28 18:50:07;;;;;;;7.43;3.88;;;;;;;-144.30;29.72;83403.09;5129489;27;20711;-55
2023/07/28 18:52:52;;;;;;;3.90;3.60;;;;;;;-144.30;29.93;83365.34;5129317;27;20285;-51
2023/07/28 18:55:29;;;;;;;4.22;3.92;;;;;;;-144.30;29.83;83397.16;5127903;27;20681;-51
2023/07/28 18:58:25;;;;;;;4.10;3.60;;;;;;;-144.30;29.94;83281.91;5129117;27;20194;-54
2023/07/28 19:01:01;;;;;;;5.45;4.35;;;;;;;-144.30;29.91;83385.22;5128609;27;20198;-52
2023/07/28 19:03:54;;;;;;;4.13;3.45;;;;;;;-144.30;29.72;83379.25;5130469;27;20683;-49
2023/07/28 19:06:43;;;;;;;5.53;5.13;;;;;;;-144.30;30.33;83424.97;5127088;27;20198;-55
2023/07/28 19:09:22;;;;;;;5.18;4.78;;;;;;;-144.30;30.66;83399.13;5129332;27;20189;-54
2023/07/28 19:12:19;;;;;;;7.68;4.45;;;;;;;-144.30;30.67;83462.72;5130340;27;20201;-54
2023/07/28 19:14:55;;;;;;;6.07;5.10;;;;;;;-144.30;30.74;83474.63;5129450;27;20185;-49
2023/07/28 19:17:27;;;;;;;10.70;5.00;;;;;;;-144.30;31.01;83468.66;5129528;28;20229;-49
2023/07/28 19:20:09;;;;;;;6.30;5.25;;;;;;;-144.30;30.99;83468.66;5129702;28;20214;-52
2023/07/28 19:22:44;;;;;;;10.27;5.32;;;;;;;-144.30;31.13;83516.34;5129395;28;20198;-53
2023/07/28 19:25:21;;;;;;;6.38;5.25;;;;;;;-144.30;31.37;83568.00;5127100;28;20197;-49
2023/07/28 19:27:54;;;;;;;10.82;6.93;;;;;;;-144.30;31.59;83516.34;5128006;28;20204;-53
2023/07/28 19:30:28;;;;;;;11.40;7.18;;;;;;;-144.30;31.27;83566.03;5129320;28;20719;-53
2023/07/28 19:33:09;;;;;;;15.35;8.82;;;;;;;-144.30;31.64;83552.13;5129090;28;20245;-48
2023/07/28 19:35:46;;;;;;;13.13;8.15;;;;;;;-144.30;31.77;83572.00;5123877;28;20198;-48
2023/07/28 19:38:34;;;;;;;12.95;8.77;;;;;;;-144.30;31.82;83595.81;5124558;27;20202;-49
2023/07/28 19:41:18;;;;;;;11.18;8.45;;;;;;;-144.30;31.91;83619.66;5134176;27;20654;-49
2023/07/28 19:43:59;;;;;;;15.57;7.68;;;;;;;-144.30;32.27;83643.50;5134485;27;20267;-49
2023/07/28 19:46:28;;;;;;;9.98;7.10;;;;;;;-144.30;32.49;83629.59;5134239;27;20202;-53
2023/07/28 19:49:21;;;;;;;11.45;7.25;;;;;;;-144.30;32.94;83695.19;5134191;27;20197;-54
2023/07/28 19:51:55;;;;;;;11.82;6.88;;;;;;;-144.30;33.26;83675.31;5134149;27;20197;-53
2023/07/28 19:54:40;;;;;;;7.15;5.88;;;;;;;-144.30;33.61;83717.03;5134116;27;20697;-54
2023/07/28 19:57:10;;;;;;;11.05;5.63;;;;;;;-144.30;33.80;83738.88;5133802;27;20255;-53
2023/07/28 19:59:46;;;;;;;13.65;4.82;;;;;;;-144.30;34.25;83812.41;5133455;27;20221;-55
2023/07/28 20:02:26;;;;;;;8.63;4.60;;;;;;;-144.30;34.35;83794.53;5133983;27;20225;-54
2023/07/28 20:05:07;;;;;;;5.03;4.57;;;;;;;-144.30;34.51;83806.44;5133791;27;20194;-54
2023/07/28 20:07:49;;;;;;;8.68;5.35;;;;;;;-144.30;34.61;83870.03;5133755;27;20229;-50
2023/07/28 20:10:26;;;;;;;5.18;4.50;;;;;;;-144.30;34.62;83860.09;5133710;27;20276;-50
2023/07/28 20:12:57;;;;;;;8.68;4.90;;;;;;;-144.30;34.88;83874.00;5133665;27;20197;-50
2023/07/28 20:15:36;;;;;;;5.45;4.40;;;;;;;-144.30;35.04;83881.97;5133247;27;20281;-52
2023/07/28 20:18:09;;;;;;;5.97;4.13;;;;;;;-144.30;35.00;83895.88;5132958;27;20237;-49
2023/07/28 20:20:40;;;;;;;4.65;4.32;;;;;;;-144.30;34.99;83913.75;5133241;27;20229;-49
2023/07/28 20:23:14;;;;;;;5.85;4.63;;;;;;;-144.30;34.74;83929.66;5132634;27;20194;-50
2023/07/28 20:25:44;;;;;;;5.00;4.53;;;;;;;-144.30;34.54;83959.44;5134150;27;20647;-54
2023/07/28 20:28:12;;;;;;;6.63;4.28;;;;;;;-144.30;34.29;83955.47;5133352;27;20202;-50
2023/07/28 20:30:45;;;;;;;5.40;4.32;;;;;;;-144.30;34.25;83965.41;5133599;27;20246;-49
2023/07/28 20:33:33;;;;;;;4.72;4.30;;;;;;;-144.30;34.38;83989.25;5133554;27;20254;-50
2023/07/28 20:36:06;;;;;;;7.05;3.97;;;;;;;-144.30;34.20;83965.41;5130024;27;20198;-54
2023/07/28 20:38:42;;;;;;;5.63;4.60;;;;;;;-144.30;34.21;83963.44;5132900;27;20233;-54
2023/07/28 20:41:11;;;;;;;8.07;4.32;;;;;;;-144.30;34.09;83905.81;5132978;27;20194;-48
2023/07/28 20:43:50;;;;;;;6.63;4.45;;;;;;;-144.30;34.62;83975.34;5132632;27;20190;-53
2023/07/28 20:46:35;;;;;;;8.88;4.20;;;;;;;-144.30;34.83;83955.47;5132979;27;20197;-54
2023/07/28 20:49:12;;;;;;;9.40;4.55;;;;;;;-144.30;34.77;83969.38;5132340;27;20190;-54
2023/07/28 20:51:44;;;;;;;4.93;4.45;;;;;;;-144.30;34.86;84009.13;5132694;27;20222;-50
2023/07/28 20:54:38;;;;;;;4.40;4.00;;;;;;;-144.30;34.81;83985.28;5132112;27;20624;-49
2023/07/28 20:57:26;;;;;;;4.25;3.85;;;;;;;-144.30;34.41;83983.28;5132928;27;20701;-53
2023/07/28 21:00:02;;;;;;;8.10;4.00;;;;;;;-144.30;34.02;83997.22;5132913;27;20218;-53
2023/07/28 21:02:50;;;;;;;4.65;4.25;;;;;;;-144.30;33.99;83953.50;5132888;27;20676;-53
2023/07/28 21:05:37;;;;;;;4.70;4.00;;;;;;;-144.30;34.03;83983.28;5132609;27;20198;-49
2023/07/28 21:08:29;;;;;;;5.45;4.07;;;;;;;-144.30;34.61;84001.19;5132427;27;20229;-53
2023/07/28 21:11:24;;;;;;;4.68;4.13;;;;;;;-144.30;34.67;84007.16;5130023;27;20206;-53
2023/07/28 21:14:06;;;;;;;6.10;5.63;;;;;;;-144.30;34.88;84056.81;5130395;27;20206;-49
2023/07/28 21:16:54;;;;;;;6.68;5.40;;;;;;;-144.30;34.66;84060.78;5132623;27;20217;-53
2023/07/28 21:19:41;;;;;;;7.38;6.45;;;;;;;-144.30;34.76;84062.78;5132060;27;20229;-53
2023/07/28 21:22:19;;;;;;;5.88;4.03;;;;;;;-144.30;34.40;84029.00;5132533;27;20589;-54
2023/07/28 21:25:06;;;;;;;10.65;4.70;;;;;;;-144.30;34.47;84068.75;5132350;27;20555;-50
2023/07/28 21:27:55;;;;;;;4.38;4.07;;;;;;;-144.30;34.29;84058.81;5130838;27;20577;-54
2023/07/28 21:30:38;;;;;;;5.20;3.50;;;;;;;-144.30;34.33;84064.78;5132471;27;20225;-50
2023/07/28 21:33:16;;;;;;;7.03;3.90;;;;;;;-144.30;34.40;83955.47;5132233;27;20197;-49
2023/07/28 21:35:54;;;;;;;4.10;3.53;;;;;;;-144.30;34.42;84027.00;5131907;27;20198;-50
2023/07/28 21:38:42;;;;;;;6.82;3.60;;;;;;;-144.30;34.31;84052.84;5132199;27;20681;-49
2023/07/28 21:41:28;;;;;;;8.23;3.80;;;;;;;-144.30;34.47;84056.81;5131568;27;20205;-48
2023/07/28 21:44:30;;;;;;;3.50;3.20;;;;;;;-144.30;34.00;84056.81;5131923;27;20198;-54
2023/07/28 21:47:25;;;;;;;3.35;3.15;;;;;;;-144.30;33.63;84023.03;5129207;27;20288;-54
2023/07/28 21:50:09;;;;;;;6.65;3.42;;;;;;;-144.30;33.75;84038.94;5132308;27;20190;-54
2023/07/28 21:52:56;;;;;;;10.35;3.35;;;;;;;-144.30;33.75;84029.00;5131893;27;20198;-49
2023/07/28 21:55:42;;;;;;;6.82;4.25;;;;;;;-144.30;34.04;84019.06;5130558;27;20222;-50
2023/07/28 21:58:32;;;;;;;4.40;4.05;;;;;;;-144.30;34.71;84086.63;5129363;27;20302;-50
2023/07/28 22:01:26;;;;;;;5.05;3.58;;;;;;;-144.30;34.49;84076.69;5127965;27;20233;-53
2023/07/28 22:04:18;;;;;;;3.60;3.33;;;;;;;-144.30;34.40;84076.69;5131498;27;20233;-49
2023/07/28 22:07:06;;;;;;;3.25;2.95;;;;;;;-144.30;34.30;83977.34;5131450;27;20229;-49
2023/07/28 22:09:43;;;;;;;3.22;3.00;;;;;;;-144.30;34.41;84080.66;5130782;27;20194;-53
2023/07/28 22:12:39;;;;;;;6.18;3.47;;;;;;;-144.30;34.23;84064.78;5130521;27;20204;-53
2023/07/28 22:15:28;;;;;;;3.15;2.85;;;;;;;-144.30;34.53;84084.66;5131439;27;20226;-53
2023/07/28 22:18:08;;;;;;;3.42;3.08;;;;;;;-144.30;34.69;84058.81;5130245;27;20235;-53
2023/07/28 22:20:47;;;;;;;2.97;2.67;;;;;;;-144.30;34.64;84072.72;5131078;27;20221;-49
2023/07/28 22:23:31;;;;;;;5.68;3.35;;;;;;;-144.30;34.71;84050.84;5129522;27;20735;-54
2023/07/28 22:26:13;;;;;;;5.50;3.20;;;;;;;-144.30;34.63;84080.66;5131155;27;20668;-50
2023/07/28 22:28:54;;;;;;;3.20;3.00;;;;;;;-144.30;34.69;84082.66;5130433;27;20284;-49
2023/07/28 22:31:35;;;;;;;5.93;3.13;;;;;;;-144.30;34.70;84076.69;5130326;27;20186;-49
2023/07/28 22:34:31;;;;;;;3.97;3.05;;;;;;;-144.30;34.76;84029.00;5130867;27;20681;-53
2023/07/28 22:37:15;;;;;;;3.95;3.67;;;;;;;-144.30;35.18;84029.00;5129801;27;20193;-54
2023/07/28 22:39:55;;;;;;;6.47;4.22;;;;;;;-144.30;35.27;84080.66;5130862;27;20217;-53
2023/07/28 22:42:40;;;;;;;4.53;4.22;;;;;;;-144.30;35.20;84056.81;5131085;27;20280;-53
2023/07/28 22:45:10;;;;;;;3.70;3.42;;;;;;;-144.30;35.30;84068.75;5130335;27;20198;-48
2023/07/28 22:47:52;;;;;;;3.97;3.67;;;;;;;-144.30;35.46;84056.81;5130602;27;20711;-53
2023/07/28 22:50:30;;;;;;;5.07;4.57;;;;;;;-144.30;35.51;84048.88;5130784;27;20215;-49
2023/07/28 22:53:18;;;;;;;4.38;4.05;;;;;;;-144.30;35.90;84076.69;5129705;27;20200;-47
2023/07/28 22:56:05;;;;;;;5.85;4.40;;;;;;;-144.30;35.94;84042.91;5130709;27;20205;-54
2023/07/28 22:58:53;;;;;;;4.10;3.70;;;;;;;-144.30;36.44;84090.59;5130997;27;20205;-53
2023/07/28 23:01:41;;;;;;;3.50;3.30;;;;;;;-144.30;36.54;84120.41;5130615;27;20221;-53
2023/07/28 23:04:24;;;;;;;4.55;4.07;;;;;;;-144.30;37.02;84106.50;5130395;27;20198;-51
2023/07/28 23:07:15;;;;;;;6.47;4.50;;;;;;;-144.30;37.30;84090.59;5130695;27;20204;-48
2023/07/28 23:09:44;;;;;;;6.40;4.68;;;;;;;-144.30;37.87;84134.31;5130348;27;20262;-51
2023/07/28 23:12:28;;;;;;;6.05;4.82;;;;;;;-144.30;38.15;84108.50;5130222;27;20562;-53
2023/07/28 23:15:12;;;;;;;6.65;5.55;;;;;;;-144.30;38.48;84114.44;5129078;27;20198;-50
2023/07/28 23:18:03;;;;;;;5.88;5.18;;;;;;;-144.30;38.71;84122.41;5128773;28;20333;-50
2023/07/28 23:20:46;;;;;;;10.77;5.65;;;;;;;-144.30;39.12;84140.28;5129746;28;20217;-50
2023/07/28 23:23:38;;;;;;;5.70;5.10;;;;;;;-144.30;39.22;84191.94;5129650;28;20242;-51
2023/07/28 23:26:30;;;;;;;7.10;5.72;;;;;;;-144.30;39.65;84203.88;5129988;28;20587;-51
2023/07/28 23:29:27;;;;;;;10.82;5.15;;;;;;;-144.30;39.50;84217.78;5130101;28;20288;-54
2023/07/28 23:32:11;;;;;;;6.57;4.95;;;;;;;-144.30;40.06;84201.88;5130790;28;20221;-50
2023/07/28 23:34:55;;;;;;;6.22;5.50;;;;;;;-144.30;40.33;84251.56;5130331;28;20658;-54
2023/07/28 23:37:41;;;;;;;5.28;4.88;;;;;;;-144.30;40.88;84307.22;5130051;28;20193;-53
2023/07/28 23:40:35;;;;;;;5.38;4.88;;;;;;;-144.30;41.09;84259.50;5129638;28;20701;-53
2023/07/28 23:43:31;;;;;;;8.13;4.90;;;;;;;-144.30;41.59;84307.22;5128594;28;20202;-49
2023/07/28 23:46:23;;;;;;;5.95;5.35;;;;;;;-144.30;42.19;84346.97;5129928;28;20636;-50